Aumsville, Oregon
Current Conditions -  °F | °C
As of 11:56 PM on Tuesday 25 Nov 2014 (Local Time) from KSLE Reporting Station
Overcast Overcast  
Wind Chill: 14°   Ceiling: 5000
Heat Index: 14°   Visibility: 10mi
Dew Point: 12°   Wind: 6mph
Humidity: 84%   Direction: 190°S
Pressure: 30.29"   Gusts: NA
Location:  44.84°N, 122.87°W
Report Text: KSLE 260756Z AUTO 19005KT 10SM OVC050 14/12 A3029 RMK AO2 SLP257 T01440117 401670128 $
Loading
Personal Weather Stations






























Interactive Weather Map New forecast layout! Learn more

10-Day Weather Forecast

Advertisements
Track Severe Weather on mobile